Time;durP1;ratioP1;P1;durP2;ratioP2;P2;SDS_P1;SDS_P2;PMS_P1;PMS_P2;Temp;Humidity;BMP_temperature;BMP_pressure;BME280_temperature;BME280_humidity;BME280_pressure;Samples;Min_cycle;Max_cycle;Signal;HPM_P1;HPM_P2
2022/07/04 00:00:05;;;;;;;3.13;1.30;;;23.50;59.40;24.30;96585.00;;;;5032135;28;20307;-91
2022/07/04 00:02:32;;;;;;;1.43;1.33;;;23.50;59.40;24.30;96591.00;;;;5039430;28;20457;-91
2022/07/04 00:05:01;;;;;;;1.03;1.03;;;23.50;59.50;24.30;96599.00;;;;5030969;28;20279;-91
2022/07/04 00:07:28;;;;;;;1.10;1.07;;;23.60;59.70;24.30;96613.00;;;;5029100;28;20287;-87
2022/07/04 00:10:00;;;;;;;0.90;0.90;;;23.50;59.70;24.30;96624.00;;;;5033583;28;20242;-90
2022/07/04 00:12:29;;;;;;;1.00;0.90;;;23.50;60.00;24.40;96620.00;;;;5037830;28;20197;-91
2022/07/04 00:14:56;;;;;;;1.10;0.80;;;23.60;59.90;24.40;96623.00;;;;5033456;28;20233;-90
2022/07/04 00:17:24;;;;;;;0.80;0.80;;;23.60;59.90;24.40;96600.00;;;;5026487;28;20598;-91
2022/07/04 00:19:51;;;;;;;1.10;1.10;;;23.60;59.80;24.40;96583.00;;;;5025695;28;20239;-90
2022/07/04 00:22:20;;;;;;;1.80;0.93;;;23.60;59.90;24.50;96592.00;;;;5034322;28;20658;-90
2022/07/04 00:24:51;;;;;;;1.77;0.80;;;23.70;60.00;24.50;96587.00;;;;5032268;28;20644;-90
2022/07/04 00:27:19;;;;;;;1.67;1.20;;;23.70;60.70;24.50;96600.00;;;;5036662;28;20207;-90
2022/07/04 00:29:46;;;;;;;1.80;1.20;;;23.80;61.10;24.60;96602.00;;;;5038465;28;20223;-89
2022/07/04 00:32:14;;;;;;;1.00;0.83;;;23.80;61.80;24.60;96612.00;;;;5029324;28;20230;-89
2022/07/04 00:34:41;;;;;;;0.83;0.70;;;23.80;61.60;24.60;96613.00;;;;5027691;28;20233;-91
2022/07/04 00:37:12;;;;;;;0.60;0.60;;;23.80;61.50;24.60;96620.00;;;;5024874;28;20693;-89
2022/07/04 00:39:41;;;;;;;0.60;0.60;;;23.80;61.40;24.60;96631.00;;;;5039942;28;20309;-90
2022/07/04 00:42:08;;;;;;;0.70;0.70;;;23.80;61.00;24.60;96634.00;;;;5056974;28;20203;-90
2022/07/04 00:44:36;;;;;;;0.77;0.77;;;23.80;60.90;24.60;96649.00;;;;5044629;28;20265;-90
2022/07/04 00:47:07;;;;;;;0.70;0.60;;;23.80;61.00;24.60;96637.00;;;;5038335;28;20190;-90
2022/07/04 00:49:39;;;;;;;0.70;0.70;;;23.80;60.80;24.60;96640.00;;;;5042230;28;20234;-90
2022/07/04 00:52:10;;;;;;;1.70;1.00;;;23.80;60.80;24.60;96648.00;;;;5038407;28;20196;-91
2022/07/04 00:54:37;;;;;;;0.80;0.70;;;23.80;61.20;24.60;96644.00;;;;5044102;28;20198;-91
2022/07/04 00:57:07;;;;;;;0.70;0.70;;;23.90;61.10;24.60;96641.00;;;;5039154;28;20203;-90
2022/07/04 00:59:40;;;;;;;0.50;0.50;;;23.90;61.20;24.60;96644.00;;;;5035059;28;20246;-89
2022/07/04 01:02:10;;;;;;;0.73;0.63;;;23.90;61.30;24.60;96646.00;;;;5048801;28;20660;-90
2022/07/04 01:04:38;;;;;;;0.80;0.80;;;23.90;61.10;24.60;96629.00;;;;5045601;28;20946;-91
2022/07/04 01:07:06;;;;;;;3.07;0.90;;;23.90;61.10;24.60;96625.00;;;;5046429;28;20216;-90
2022/07/04 01:09:34;;;;;;;2.33;0.80;;;23.90;61.40;24.60;96629.00;;;;5037821;28;20225;-90
2022/07/04 01:12:02;;;;;;;0.83;0.83;;;23.90;61.40;24.70;96626.00;;;;5041093;28;20282;-91
2022/07/04 01:14:30;;;;;;;0.80;0.80;;;23.90;61.20;24.70;96615.00;;;;5037526;28;20268;-89
2022/07/04 01:16:58;;;;;;;1.00;0.90;;;23.90;61.10;24.70;96606.00;;;;5042128;28;20230;-91
2022/07/04 01:19:25;;;;;;;2.10;1.00;;;23.90;60.80;24.70;96618.00;;;;5038068;28;20265;-90
2022/07/04 01:21:53;;;;;;;0.83;0.77;;;24.00;60.90;24.70;96614.00;;;;5037445;28;20268;-91
2022/07/04 01:24:20;;;;;;;0.80;0.80;;;24.00;60.80;24.70;96621.00;;;;5040395;28;20704;-91
2022/07/04 01:26:48;;;;;;;0.90;0.90;;;24.00;60.80;24.80;96609.00;;;;5047470;28;20195;-90
2022/07/04 01:29:15;;;;;;;1.30;0.93;;;24.00;60.80;24.80;96619.00;;;;5046942;28;20219;-90
2022/07/04 01:31:42;;;;;;;2.73;0.70;;;24.00;60.90;24.80;96636.00;;;;5042327;28;20198;-91
2022/07/04 01:34:09;;;;;;;1.13;0.83;;;24.00;61.10;24.80;96641.00;;;;5040549;28;20196;-90
2022/07/04 01:36:36;;;;;;;0.70;0.70;;;24.00;61.00;24.80;96653.00;;;;5034914;28;20197;-91
2022/07/04 01:39:05;;;;;;;1.40;0.83;;;23.90;60.80;24.80;96659.00;;;;5026928;28;20255;-91
2022/07/04 01:41:35;;;;;;;0.83;0.80;;;24.00;60.90;24.80;96665.00;;;;5042409;28;20200;-90
2022/07/04 01:44:02;;;;;;;0.90;0.73;;;24.00;60.90;24.80;96653.00;;;;5035878;28;20222;-91
2022/07/04 01:46:30;;;;;;;0.87;0.80;;;24.00;60.70;24.80;96644.00;;;;5032331;28;20281;-91
2022/07/04 01:48:57;;;;;;;1.27;0.80;;;24.00;60.60;24.80;96640.00;;;;5033548;28;20198;-92
2022/07/04 01:51:27;;;;;;;1.67;1.43;;;24.00;60.80;24.80;96640.00;;;;5032956;28;20204;-91
2022/07/04 01:53:54;;;;;;;0.80;0.80;;;24.00;60.80;24.70;96636.00;;;;5039966;28;20187;-91
2022/07/04 01:56:23;;;;;;;0.80;0.80;;;24.00;60.80;24.70;96622.00;;;;5033514;28;20208;-91
2022/07/04 01:58:50;;;;;;;1.20;1.10;;;24.00;61.00;24.70;96618.00;;;;5031467;28;20273;-90
2022/07/04 02:01:32;;;;;;;0.70;0.70;;;24.00;60.90;24.70;96615.00;;;;5041661;28;20231;-91
2022/07/04 02:04:00;;;;;;;1.50;0.73;;;24.00;60.90;24.70;96610.00;;;;5027630;28;20200;-90
2022/07/04 02:06:28;;;;;;;1.20;1.10;;;24.00;61.00;24.70;96611.00;;;;5039139;28;20229;-91
2022/07/04 02:14:42;;;;;;;1.43;1.03;;;24.00;61.20;24.70;96619.00;;;;5014779;28;20700;-82
2022/07/04 02:17:16;;;;;;;1.40;0.80;;;24.00;61.10;24.70;96620.00;;;;5055902;28;20273;-83
2022/07/04 02:19:52;;;;;;;0.90;0.90;;;24.00;61.30;24.70;96623.00;;;;5056989;28;20268;-82
2022/07/04 02:22:24;;;;;;;1.10;0.90;;;24.00;61.40;24.70;96629.00;;;;5055249;28;20262;-82
2022/07/04 02:24:55;;;;;;;1.23;0.80;;;24.00;61.50;24.70;96627.00;;;;5055411;28;20293;-82
2022/07/04 02:27:23;;;;;;;0.80;0.80;;;24.00;61.70;24.70;96630.00;;;;5056195;28;20220;-82
2022/07/04 02:29:55;;;;;;;0.90;0.90;;;24.00;61.70;24.70;96632.00;;;;5054313;28;20620;-83
2022/07/04 02:32:22;;;;;;;2.83;1.10;;;24.00;61.80;24.70;96633.00;;;;5046185;28;20193;-83
2022/07/04 02:34:52;;;;;;;1.10;0.90;;;24.00;61.90;24.70;96625.00;;;;5047629;28;20196;-83
2022/07/04 02:37:36;;;;;;;0.80;0.80;;;24.00;62.00;24.70;96627.00;;;;5051230;28;20274;-82
2022/07/04 02:40:03;;;;;;;1.03;0.97;;;24.00;62.20;24.70;96624.00;;;;5052473;28;20223;-83
2022/07/04 02:42:37;;;;;;;0.90;0.90;;;24.10;62.10;24.70;96631.00;;;;5051260;28;20207;-82
2022/07/04 02:45:12;;;;;;;1.00;0.90;;;24.00;62.20;24.70;96627.00;;;;5055699;28;20254;-83
2022/07/04 02:47:42;;;;;;;1.07;0.90;;;24.10;62.30;24.80;96630.00;;;;5057419;28;20226;-83
2022/07/04 02:50:15;;;;;;;1.90;0.93;;;24.00;62.30;24.80;96635.00;;;;5056386;28;20291;-82
2022/07/04 02:52:44;;;;;;;1.60;1.50;;;24.10;62.50;24.80;96638.00;;;;5051048;28;20192;-82
2022/07/04 02:55:17;;;;;;;1.60;1.50;;;24.10;62.50;24.80;96640.00;;;;5057298;28;20572;-83
2022/07/04 02:57:49;;;;;;;1.33;0.83;;;24.00;62.50;24.80;96635.00;;;;5055741;28;20220;-83
2022/07/04 03:00:21;;;;;;;1.43;1.00;;;24.10;62.50;24.80;96632.00;;;;5057532;28;20231;-82
2022/07/04 03:02:53;;;;;;;0.87;0.87;;;24.10;62.60;24.80;96637.00;;;;5053940;28;20238;-82
2022/07/04 03:05:28;;;;;;;0.80;0.80;;;24.10;62.50;24.80;96641.00;;;;5050156;28;20222;-83
2022/07/04 03:08:05;;;;;;;1.10;1.00;;;24.10;62.50;24.80;96647.00;;;;5057197;28;20218;-82
2022/07/04 03:10:34;;;;;;;1.30;1.00;;;24.10;62.60;24.80;96652.00;;;;5049811;28;20211;-82
2022/07/04 03:13:04;;;;;;;1.50;0.87;;;24.10;62.50;24.80;96652.00;;;;5062219;28;20577;-82
2022/07/04 03:15:32;;;;;;;1.13;1.03;;;24.10;62.60;24.80;96657.00;;;;5044198;28;20227;-83
2022/07/04 03:18:00;;;;;;;1.20;1.00;;;24.10;62.70;24.80;96663.00;;;;5044960;28;20226;-82
2022/07/04 03:20:27;;;;;;;1.00;1.00;;;24.10;63.00;24.80;96663.00;;;;5050806;28;20200;-82
2022/07/04 03:22:55;;;;;;;2.03;0.90;;;24.10;63.00;24.80;96667.00;;;;5061823;28;20209;-83
2022/07/04 03:25:22;;;;;;;1.37;1.00;;;24.00;63.20;24.80;96673.00;;;;5058691;28;20292;-82
2022/07/04 03:27:49;;;;;;;1.27;1.17;;;24.00;63.80;24.80;96669.00;;;;5054828;28;20223;-82
2022/07/04 03:30:21;;;;;;;1.40;1.30;;;24.10;63.20;24.80;96670.00;;;;5052749;28;20555;-82
2022/07/04 03:32:48;;;;;;;0.80;0.80;;;24.10;63.30;24.80;96662.00;;;;5038669;28;20196;-82
2022/07/04 03:35:19;;;;;;;0.70;0.70;;;24.00;63.00;24.80;96669.00;;;;5049466;28;20242;-82
2022/07/04 03:37:51;;;;;;;2.00;1.13;;;24.00;62.90;24.70;96669.00;;;;5054846;28;20220;-82
2022/07/04 03:40:30;;;;;;;0.90;0.90;;;24.00;63.00;24.70;96669.00;;;;5049087;28;20649;-83
2022/07/04 03:43:00;;;;;;;0.80;0.80;;;24.10;63.50;24.70;96680.00;;;;5040244;28;20195;-82
2022/07/04 03:45:29;;;;;;;1.43;0.70;;;24.00;63.20;24.70;96678.00;;;;5050066;28;20248;-83
2022/07/04 03:47:56;;;;;;;1.27;1.17;;;24.00;63.20;24.70;96685.00;;;;5046459;28;20216;-82
2022/07/04 03:50:24;;;;;;;1.00;1.00;;;24.00;63.20;24.60;96698.00;;;;5053629;28;20262;-83
2022/07/04 03:52:51;;;;;;;4.13;1.37;;;23.90;63.20;24.60;96707.00;;;;5047260;28;20234;-83
2022/07/04 03:55:18;;;;;;;1.00;1.00;;;23.90;63.30;24.60;96710.00;;;;5050796;28;20246;-82
2022/07/04 03:57:46;;;;;;;0.87;0.87;;;23.90;63.40;24.50;96706.00;;;;5062228;28;20220;-83
2022/07/04 04:00:15;;;;;;;0.93;0.93;;;23.90;63.50;24.50;96708.00;;;;5055112;28;20198;-83
2022/07/04 04:02:43;;;;;;;1.40;1.30;;;23.80;63.50;24.50;96710.00;;;;5052750;28;20621;-83
2022/07/04 04:05:27;;;;;;;1.53;1.10;;;23.80;63.60;24.50;96709.00;;;;5059516;28;20233;-82
2022/07/04 04:07:56;;;;;;;1.00;1.00;;;23.80;63.70;24.40;96704.00;;;;5055365;28;20220;-82
2022/07/04 04:10:24;;;;;;;0.80;0.80;;;23.80;63.80;24.40;96710.00;;;;5055988;28;20211;-82
2022/07/04 04:12:52;;;;;;;1.03;0.93;;;23.80;64.10;24.40;96713.00;;;;5051546;28;20200;-83
2022/07/04 04:15:19;;;;;;;1.20;1.03;;;23.80;64.40;24.40;96717.00;;;;5057566;28;20211;-83
2022/07/04 04:17:49;;;;;;;1.03;0.93;;;23.80;64.60;24.40;96721.00;;;;5057012;28;20760;-82
2022/07/04 04:20:17;;;;;;;0.87;0.87;;;23.70;64.70;24.40;96711.00;;;;5055924;28;20217;-82
2022/07/04 04:22:49;;;;;;;0.97;0.97;;;23.80;64.80;24.40;96707.00;;;;5059048;28;20210;-82
2022/07/04 04:25:19;;;;;;;1.30;0.90;;;23.70;65.60;24.40;96712.00;;;;5060389;28;20270;-83
2022/07/04 04:27:47;;;;;;;2.37;1.10;;;23.70;64.80;24.40;96720.00;;;;5060434;28;20216;-86
2022/07/04 04:30:15;;;;;;;1.27;1.17;;;23.70;65.10;24.40;96725.00;;;;5056169;28;20205;-87
2022/07/04 04:32:51;;;;;;;1.03;0.97;;;23.70;65.20;24.40;96742.00;;;;5054802;28;20549;-85
2022/07/04 04:35:20;;;;;;;0.93;0.93;;;23.70;65.40;24.40;96754.00;;;;5061244;28;20653;-85
2022/07/04 04:37:49;;;;;;;1.00;1.00;;;23.70;65.60;24.40;96735.00;;;;5057195;28;20216;-85
2022/07/04 04:40:17;;;;;;;1.97;1.20;;;23.70;65.80;24.50;96746.00;;;;5040550;28;20201;-86
2022/07/04 04:42:46;;;;;;;0.60;0.60;;;23.70;65.70;24.50;96746.00;;;;5054362;28;20199;-86
2022/07/04 04:45:13;;;;;;;1.40;1.30;;;23.70;66.10;24.50;96755.00;;;;5050401;28;20202;-87
2022/07/04 04:47:42;;;;;;;1.00;1.00;;;23.70;66.60;24.50;96760.00;;;;5053047;28;20582;-88
2022/07/04 04:50:12;;;;;;;1.33;0.93;;;23.70;66.90;24.50;96749.00;;;;5053922;28;20558;-87
2022/07/04 04:52:39;;;;;;;1.43;1.00;;;23.70;67.00;24.50;96753.00;;;;5044697;28;20550;-87
2022/07/04 04:55:07;;;;;;;1.00;0.97;;;23.70;67.00;24.60;96756.00;;;;5053651;28;20207;-87
2022/07/04 04:57:35;;;;;;;0.90;0.90;;;23.70;67.10;24.60;96752.00;;;;5040468;28;20643;-88
2022/07/04 05:00:05;;;;;;;1.13;1.03;;;23.80;67.30;24.60;96761.00;;;;5054265;28;20191;-86
2022/07/04 05:02:33;;;;;;;1.57;1.10;;;23.80;67.30;24.60;96754.00;;;;5054477;28;20198;-88
2022/07/04 05:05:02;;;;;;;1.60;1.10;;;23.80;67.20;24.70;96747.00;;;;5053831;28;20200;-89
2022/07/04 05:07:31;;;;;;;2.03;1.60;;;23.80;67.40;24.70;96750.00;;;;5044209;28;20232;-88
2022/07/04 05:09:59;;;;;;;1.20;1.10;;;23.80;67.70;24.70;96742.00;;;;5048435;28;20287;-89
2022/07/04 05:12:31;;;;;;;1.17;1.00;;;23.90;67.80;24.80;96740.00;;;;5044187;28;20204;-88
2022/07/04 05:14:59;;;;;;;2.03;1.30;;;23.90;68.10;24.80;96736.00;;;;5039757;28;20199;-86
2022/07/04 05:17:35;;;;;;;1.10;1.00;;;23.90;67.90;24.90;96728.00;;;;5054546;28;20227;-86
2022/07/04 05:20:03;;;;;;;2.47;1.83;;;24.00;67.90;24.90;96734.00;;;;5059247;28;20189;-86
2022/07/04 05:22:34;;;;;;;1.20;1.10;;;24.00;67.40;25.00;96741.00;;;;5053676;28;20276;-86
2022/07/04 05:25:01;;;;;;;1.30;1.20;;;24.00;67.60;25.00;96754.00;;;;5050411;28;20291;-87
2022/07/04 05:27:30;;;;;;;1.27;1.17;;;24.10;67.70;25.10;96758.00;;;;5054766;28;20224;-88
2022/07/04 05:30:08;;;;;;;1.30;1.23;;;24.10;67.70;25.10;96773.00;;;;5057711;28;20230;-86
2022/07/04 05:32:44;;;;;;;1.30;1.20;;;24.20;68.60;25.10;96762.00;;;;5074664;28;20219;-87
2022/07/04 05:35:19;;;;;;;1.10;1.00;;;24.20;67.70;25.20;96766.00;;;;5074365;28;20210;-87
2022/07/04 05:37:52;;;;;;;1.73;0.93;;;24.30;67.70;25.30;96770.00;;;;5070530;28;20322;-86
2022/07/04 05:40:27;;;;;;;1.17;1.13;;;24.30;67.80;25.30;96767.00;;;;5036881;28;20219;-86
2022/07/04 05:42:56;;;;;;;1.73;1.20;;;24.40;68.00;25.40;96758.00;;;;5051145;28;20223;-87
2022/07/04 05:45:25;;;;;;;1.40;0.90;;;24.40;67.60;25.40;96768.00;;;;5053654;28;20196;-87
2022/07/04 05:47:59;;;;;;;0.87;0.80;;;24.50;67.30;25.50;96776.00;;;;5049361;28;20759;-86
2022/07/04 05:50:30;;;;;;;1.33;0.90;;;24.50;67.10;25.50;96781.00;;;;5050987;28;20196;-89
2022/07/04 05:52:59;;;;;;;1.20;1.10;;;24.60;66.90;25.50;96786.00;;;;5053597;28;20700;-87
2022/07/04 05:55:30;;;;;;;1.23;1.13;;;24.60;66.80;25.60;96791.00;;;;5053120;28;20213;-86
2022/07/04 05:58:00;;;;;;;1.30;1.20;;;24.70;66.70;25.60;96798.00;;;;5046622;28;20216;-85
2022/07/04 06:00:34;;;;;;;1.30;1.00;;;24.70;66.50;25.70;96794.00;;;;5045392;28;20205;-87
2022/07/04 06:03:07;;;;;;;1.17;1.00;;;24.80;66.70;25.70;96794.00;;;;5033733;28;20212;-86
2022/07/04 06:05:38;;;;;;;1.17;1.07;;;24.90;66.70;25.80;96791.00;;;;5040733;28;20216;-88
2022/07/04 06:08:07;;;;;;;1.93;1.10;;;24.90;66.50;25.90;96790.00;;;;5047036;28;20212;-88
2022/07/04 06:10:36;;;;;;;1.00;1.00;;;24.90;66.40;25.90;96794.00;;;;5051765;28;20392;-87
2022/07/04 06:13:06;;;;;;;1.50;0.90;;;25.00;66.40;26.00;96793.00;;;;5047511;28;20255;-87
2022/07/04 06:15:37;;;;;;;0.90;0.90;;;25.00;66.30;26.10;96801.00;;;;5058310;28;20604;-87
2022/07/04 06:18:04;;;;;;;1.87;1.10;;;25.10;66.40;26.10;96804.00;;;;5039895;28;20642;-86
2022/07/04 06:20:35;;;;;;;1.10;1.00;;;25.20;66.20;26.20;96812.00;;;;5046420;28;20198;-86
2022/07/04 06:23:03;;;;;;;3.43;0.97;;;25.20;66.10;26.30;96810.00;;;;5052001;28;20200;-88
2022/07/04 06:25:33;;;;;;;0.70;0.70;;;25.30;66.20;26.40;96813.00;;;;5052346;28;20243;-87
2022/07/04 06:28:01;;;;;;;1.20;1.10;;;25.40;66.00;26.50;96812.00;;;;5051678;28;20213;-88
2022/07/04 06:30:28;;;;;;;1.50;1.00;;;25.50;66.00;26.60;96816.00;;;;5051316;28;20196;-88
2022/07/04 06:32:59;;;;;;;1.17;1.07;;;25.50;65.80;26.70;96813.00;;;;5049753;28;20276;-87
2022/07/04 06:35:51;;;;;;;0.90;0.90;;;25.60;65.70;26.80;96811.00;;;;5039083;28;20666;-87
2022/07/04 06:38:21;;;;;;;2.83;0.90;;;25.70;65.30;26.90;96803.00;;;;5045688;28;20221;-87
2022/07/04 06:40:51;;;;;;;2.33;0.80;;;25.80;65.00;27.00;96807.00;;;;5050890;28;20262;-87
2022/07/04 06:43:18;;;;;;;1.37;0.73;;;25.90;64.70;27.00;96806.00;;;;5051387;28;20193;-86
2022/07/04 06:45:48;;;;;;;0.70;0.70;;;25.90;64.50;27.10;96807.00;;;;5047615;28;20280;-86
2022/07/04 06:48:23;;;;;;;0.80;0.80;;;26.00;64.20;27.10;96807.00;;;;5040457;28;20704;-87
2022/07/04 06:50:51;;;;;;;0.90;0.90;;;26.00;63.90;27.20;96815.00;;;;5050286;28;20687;-86
2022/07/04 06:53:21;;;;;;;1.73;0.80;;;26.10;63.70;27.20;96812.00;;;;5056330;28;20219;-86
2022/07/04 06:55:50;;;;;;;1.10;1.00;;;26.20;63.40;27.20;96821.00;;;;5051142;28;20197;-86
2022/07/04 06:58:22;;;;;;;1.00;1.00;;;26.20;63.00;27.20;96821.00;;;;5041244;28;20275;-86
2022/07/04 07:00:49;;;;;;;0.70;0.70;;;26.20;63.20;27.20;96822.00;;;;5044814;28;20280;-86
2022/07/04 07:03:17;;;;;;;1.30;1.20;;;26.20;63.30;27.20;96811.00;;;;5052870;28;20197;-86
2022/07/04 07:05:47;;;;;;;1.50;0.83;;;26.30;63.10;27.30;96811.00;;;;5046454;28;20576;-85
2022/07/04 07:08:15;;;;;;;1.00;0.90;;;26.30;63.00;27.30;96809.00;;;;5047846;28;20593;-86
2022/07/04 07:10:42;;;;;;;1.10;1.00;;;26.30;63.00;27.40;96802.00;;;;5051730;28;20200;-85
2022/07/04 07:13:14;;;;;;;1.00;0.70;;;26.40;63.10;27.40;96804.00;;;;5052091;28;20196;-85
2022/07/04 07:15:51;;;;;;;1.50;0.97;;;26.40;63.00;27.40;96810.00;;;;5052432;28;20208;-85
2022/07/04 07:18:19;;;;;;;0.97;0.80;;;26.40;62.90;27.50;96818.00;;;;5052500;28;20220;-86
2022/07/04 07:20:48;;;;;;;0.70;0.70;;;26.50;62.80;27.60;96822.00;;;;5051244;28;20196;-87
2022/07/04 07:23:23;;;;;;;0.90;0.90;;;26.50;62.90;27.60;96815.00;;;;5044270;28;21311;-88
2022/07/04 07:25:50;;;;;;;0.90;0.87;;;26.60;63.00;27.70;96819.00;;;;5025269;28;20196;-88
2022/07/04 07:28:19;;;;;;;0.80;0.80;;;26.60;62.50;27.70;96822.00;;;;5043855;28;20229;-88
2022/07/04 07:30:52;;;;;;;0.97;0.90;;;26.60;62.50;27.70;96821.00;;;;5045137;28;20250;-88
2022/07/04 07:33:22;;;;;;;1.70;0.80;;;26.70;62.50;27.70;96815.00;;;;5044528;28;20223;-88
2022/07/04 07:35:52;;;;;;;1.10;0.90;;;26.70;62.50;27.80;96831.00;;;;5047526;28;20193;-87
2022/07/04 07:38:20;;;;;;;0.93;0.80;;;26.70;62.40;27.80;96833.00;;;;5039978;28;20608;-87
2022/07/04 07:40:50;;;;;;;1.47;1.03;;;26.80;62.10;27.70;96817.00;;;;5050411;28;20279;-87
2022/07/04 07:43:20;;;;;;;0.80;0.80;;;26.80;62.00;27.70;96827.00;;;;5051150;28;20270;-87
2022/07/04 07:45:53;;;;;;;0.97;0.90;;;26.80;61.70;27.70;96828.00;;;;5041976;28;20250;-88
2022/07/04 07:48:21;;;;;;;1.10;1.00;;;26.80;61.80;27.60;96831.00;;;;5050900;28;20224;-87
2022/07/04 07:50:49;;;;;;;1.37;0.70;;;26.70;61.40;27.60;96824.00;;;;5045536;28;20200;-88
2022/07/04 07:53:23;;;;;;;1.23;0.90;;;26.70;61.40;27.50;96820.00;;;;5058855;28;20557;-87
2022/07/04 07:55:53;;;;;;;1.00;0.97;;;26.70;61.40;27.50;96811.00;;;;5052750;28;20291;-87
2022/07/04 07:58:24;;;;;;;0.77;0.77;;;26.70;61.40;27.50;96810.00;;;;5052692;28;20269;-87
2022/07/04 08:00:53;;;;;;;2.50;0.70;;;26.70;61.40;27.50;96796.00;;;;5038850;28;20197;-87
2022/07/04 08:06:11;;;;;;;1.40;0.80;;;26.60;61.10;27.50;96788.00;;;;5035867;28;20263;-88
2022/07/04 08:08:43;;;;;;;0.90;0.70;;;26.60;61.20;27.50;96783.00;;;;5063824;28;20211;-87
2022/07/04 08:11:12;;;;;;;0.90;0.80;;;26.60;61.30;27.60;96780.00;;;;5072098;22;20320;-83
2022/07/04 08:13:41;;;;;;;0.73;0.60;;;26.60;61.40;27.70;96784.00;;;;5033523;28;20697;-83
2022/07/04 08:16:09;;;;;;;0.67;0.67;;;26.70;61.80;27.80;96781.00;;;;5037287;28;20221;-83
2022/07/04 08:18:37;;;;;;;0.77;0.77;;;26.70;62.00;27.90;96782.00;;;;5031000;28;20201;-83
2022/07/04 08:21:04;;;;;;;0.77;0.70;;;26.80;61.80;28.00;96798.00;;;;5033463;28;20225;-83
2022/07/04 08:23:33;;;;;;;0.80;0.80;;;26.80;61.30;28.00;96787.00;;;;5036203;22;20267;-84
2022/07/04 08:26:04;;;;;;;0.80;0.67;;;26.90;61.30;28.20;96781.00;;;;5031366;28;20250;-84
2022/07/04 08:28:32;;;;;;;1.43;1.00;;;27.00;61.60;28.30;96789.00;;;;5012655;28;20234;-85
2022/07/04 08:31:04;;;;;;;1.63;0.75;;;27.10;61.70;28.40;96781.00;;;;5011694;28;20190;-84
2022/07/04 08:33:48;;;;;;;0.63;0.63;;;27.10;61.90;28.60;96766.00;;;;5026136;28;20207;-84
2022/07/04 08:36:15;;;;;;;1.10;0.70;;;27.30;61.70;28.90;96786.00;;;;5019741;28;20202;-84
2022/07/04 08:38:45;;;;;;;1.30;0.70;;;27.50;61.50;29.10;96786.00;;;;5014593;28;20225;-84
2022/07/04 08:41:16;;;;;;;0.63;0.63;;;27.60;61.80;29.30;96785.00;;;;5018490;28;20223;-84
2022/07/04 08:43:48;;;;;;;0.52;0.52;;;27.80;61.80;29.40;96796.00;;;;5013104;28;20194;-84
2022/07/04 08:46:22;;;;;;;0.88;0.70;;;27.90;61.20;29.60;96785.00;;;;5012804;28;20256;-84
2022/07/04 08:48:55;;;;;;;0.93;0.50;;;28.10;60.50;29.80;96785.00;;;;5007717;28;20210;-84
2022/07/04 08:51:38;;;;;;;1.85;0.80;;;28.30;61.00;30.00;96777.00;;;;5019151;28;20675;-84
2022/07/04 08:59:45;;;;;;;0.80;0.80;;;28.80;59.80;30.70;96782.00;;;;5008026;28;20205;-85
2022/07/04 09:02:16;;;;;;;0.52;0.52;;;29.00;59.70;30.90;96789.00;;;;5013443;28;20197;-85
2022/07/04 09:04:45;;;;;;;0.80;0.70;;;29.20;59.50;31.10;96787.00;;;;5027355;28;20244;-85
2022/07/04 09:07:19;;;;;;;1.20;0.65;;;29.40;59.20;31.40;96791.00;;;;5013635;28;20224;-85
2022/07/04 09:09:47;;;;;;;0.95;0.85;;;29.60;58.70;31.60;96787.00;;;;5013391;28;20198;-85
2022/07/04 09:12:14;;;;;;;0.50;0.50;;;29.70;58.20;31.80;96781.00;;;;5012110;28;20201;-82
2022/07/04 09:14:41;;;;;;;0.60;0.60;;;29.90;58.20;32.00;96786.00;;;;5012748;28;20264;-82
2022/07/04 09:17:09;;;;;;;0.40;0.40;;;30.10;58.00;32.20;96799.00;;;;5010394;28;20296;-82
2022/07/04 09:19:38;;;;;;;0.60;0.60;;;30.30;57.50;32.40;96798.00;;;;5022463;28;20206;-83
2022/07/04 09:22:11;;;;;;;1.58;0.60;;;30.50;57.20;32.70;96812.00;;;;5033475;28;20622;-82
2022/07/04 09:24:49;;;;;;;1.38;0.90;;;30.70;57.30;32.90;96811.00;;;;5023761;28;20211;-82
2022/07/04 09:27:34;;;;;;;0.70;0.70;;;30.90;56.10;33.10;96797.00;;;;5012038;28;20213;-82
2022/07/04 09:30:03;;;;;;;0.75;0.60;;;31.10;55.70;33.30;96790.00;;;;5009274;28;20651;-83
2022/07/04 09:32:40;;;;;;;0.57;0.57;;;31.30;55.90;33.40;96788.00;;;;5010630;28;20252;-83
2022/07/04 09:35:12;;;;;;;0.50;0.47;;;31.50;55.10;33.60;96791.00;;;;5017119;28;20219;-83
2022/07/04 09:37:42;;;;;;;1.27;0.70;;;31.70;54.90;33.80;96794.00;;;;5032076;28;20529;-83
2022/07/04 09:40:12;;;;;;;0.88;0.50;;;31.90;54.70;34.10;96797.00;;;;5025617;28;20220;-83
2022/07/04 09:42:41;;;;;;;0.60;0.60;;;32.10;54.60;34.30;96799.00;;;;5016286;28;20205;-83
2022/07/04 09:45:11;;;;;;;0.57;0.45;;;32.30;54.60;34.50;96807.00;;;;5021791;28;20202;-83
2022/07/04 09:47:41;;;;;;;1.48;0.70;;;32.50;54.40;34.70;96808.00;;;;5007171;28;20642;-82
2022/07/04 09:50:16;;;;;;;0.77;0.60;;;32.70;53.50;34.90;96794.00;;;;5027500;28;20228;-83
2022/07/04 09:52:53;;;;;;;0.57;0.57;;;32.80;52.50;35.10;96800.00;;;;5024762;28;20208;-83
2022/07/04 09:55:27;;;;;;;1.30;0.95;;;33.00;52.40;35.30;96806.00;;;;5006558;28;20256;-83
2022/07/04 09:57:58;;;;;;;0.60;0.50;;;33.20;51.50;35.50;96805.00;;;;5012536;28;20320;-83
2022/07/04 10:00:28;;;;;;;0.60;0.60;;;33.40;52.50;35.70;96798.00;;;;5012223;28;20293;-82
2022/07/04 10:02:58;;;;;;;0.40;0.40;;;33.50;51.20;35.90;96794.00;;;;5012430;28;20210;-82
2022/07/04 10:05:29;;;;;;;1.30;0.70;;;33.70;50.50;36.00;96798.00;;;;5020103;28;20220;-83
2022/07/04 10:07:58;;;;;;;0.55;0.38;;;33.90;50.50;36.20;96790.00;;;;5013565;28;20681;-83
2022/07/04 10:10:34;;;;;;;0.60;0.55;;;34.10;50.40;36.30;96788.00;;;;5011293;28;20224;-82
2022/07/04 10:13:04;;;;;;;0.30;0.30;;;34.30;49.70;36.40;96795.00;;;;5011718;28;20281;-83
2022/07/04 10:15:34;;;;;;;0.50;0.50;;;34.50;49.40;36.50;96800.00;;;;5020686;28;20244;-82
2022/07/04 10:18:01;;;;;;;0.52;0.50;;;34.70;48.50;36.60;96802.00;;;;5017235;28;20287;-83
2022/07/04 10:20:31;;;;;;;1.50;0.73;;;34.90;48.10;36.70;96794.00;;;;5017200;28;20248;-82
2022/07/04 10:23:04;;;;;;;0.50;0.40;;;35.10;48.20;36.80;96800.00;;;;4992138;28;20199;-83
2022/07/04 10:25:31;;;;;;;0.85;0.47;;;35.20;47.10;36.80;96801.00;;;;5021187;28;20621;-82
2022/07/04 10:27:59;;;;;;;0.47;0.30;;;35.30;47.00;36.80;96800.00;;;;5026752;28;20222;-83
2022/07/04 10:30:34;;;;;;;0.68;0.63;;;35.40;46.70;36.90;96798.00;;;;5012634;28;20229;-83
2022/07/04 10:33:05;;;;;;;1.48;0.52;;;35.50;46.30;36.90;96790.00;;;;5022389;28;20225;-83
2022/07/04 10:35:53;;;;;;;1.17;0.40;;;35.60;45.90;36.90;96792.00;;;;5016533;28;20215;-83
2022/07/04 10:38:22;;;;;;;0.30;0.30;;;35.80;45.60;37.00;96797.00;;;;4996507;28;20892;-83
2022/07/04 10:40:52;;;;;;;1.15;0.35;;;35.90;43.80;37.00;96795.00;;;;5031547;28;20225;-83
2022/07/04 10:44:06;;;;;;;0.65;0.30;;;35.90;42.80;36.90;96799.00;;;;5024573;28;20671;-82
2022/07/04 10:46:49;;;;;;;0.30;0.30;;;36.10;43.70;36.90;96796.00;;;;5024064;28;20205;-83
2022/07/04 10:49:28;;;;;;;0.30;0.30;;;36.00;43.50;36.70;96804.00;;;;5012780;28;20309;-84
2022/07/04 10:52:14;;;;;;;0.50;0.30;;;36.00;42.30;36.60;96800.00;;;;5011905;28;20255;-84
2022/07/04 10:54:45;;;;;;;0.30;0.30;;;35.90;42.40;36.50;96796.00;;;;5012022;28;20178;-84
2022/07/04 10:57:16;;;;;;;0.82;0.40;;;35.70;43.00;36.40;96797.00;;;;5011022;28;20730;-84
2022/07/04 10:59:45;;;;;;;0.22;0.22;;;35.60;42.70;36.30;96793.00;;;;5011656;28;20216;-84
2022/07/04 11:02:29;;;;;;;0.30;0.30;;;35.50;42.50;36.20;96797.00;;;;5012474;28;20236;-84
2022/07/04 11:05:02;;;;;;;1.80;0.40;;;35.40;42.20;36.00;96787.00;;;;5015661;28;20239;-84
2022/07/04 11:08:05;;;;;;;1.85;0.30;;;35.20;42.70;35.80;96782.00;;;;5031968;28;20221;-85
2022/07/04 11:10:38;;;;;;;0.98;0.40;;;35.00;42.60;35.60;96784.00;;;;5030861;28;20201;-85
2022/07/04 11:13:21;;;;;;;0.40;0.40;;;34.90;43.00;35.40;96779.00;;;;5031646;28;20540;-85
2022/07/04 11:16:08;;;;;;;1.05;0.30;;;34.70;42.90;35.30;96785.00;;;;5030624;28;20187;-84
2022/07/04 11:18:45;;;;;;;0.50;0.50;;;34.50;42.60;35.10;96787.00;;;;5031118;28;20217;-85
2022/07/04 11:21:24;;;;;;;0.28;0.28;;;34.30;43.10;34.90;96787.00;;;;5030903;28;20250;-84
2022/07/04 11:23:55;;;;;;;0.40;0.40;;;34.10;42.90;34.70;96785.00;;;;5031244;28;20212;-85